createdAt,value
2022-09-11T00:01:40.414Z,12.53
2022-09-11T00:04:09.006Z,10.23
2022-09-11T00:06:37.185Z,12.30
2022-09-11T00:09:07.803Z,11.80
2022-09-11T00:11:37.560Z,11.40
2022-09-11T00:14:05.906Z,11.47
2022-09-11T00:16:36.273Z,14.53
2022-09-11T00:19:07.375Z,12.90
2022-09-11T00:21:35.964Z,16.00
2022-09-11T00:24:06.349Z,15.07
2022-09-11T00:26:34.481Z,13.57
2022-09-11T00:29:04.103Z,13.80
2022-09-11T00:31:32.617Z,13.90
2022-09-11T00:34:00.925Z,13.17
2022-09-11T00:36:31.527Z,13.47
2022-09-11T00:39:00.842Z,13.30
2022-09-11T00:41:33.365Z,11.60
2022-09-11T00:44:04.068Z,13.70
2022-09-11T00:46:41.209Z,14.23
2022-09-11T00:49:23.574Z,16.50
2022-09-11T00:51:55.551Z,17.77
2022-09-11T00:54:31.161Z,16.53
2022-09-11T00:57:04.133Z,19.67
2022-09-11T00:59:34.019Z,19.20
2022-09-11T01:02:02.909Z,16.63
2022-09-11T01:04:33.490Z,16.60
2022-09-11T01:07:04.223Z,18.40
2022-09-11T01:09:33.911Z,15.30
2022-09-11T01:12:09.372Z,16.57
2022-09-11T01:14:45.277Z,20.87
2022-09-11T01:17:25.513Z,16.20
2022-09-11T01:20:14.304Z,15.00
2022-09-11T01:22:58.402Z,19.13
2022-09-11T01:25:32.430Z,16.77
2022-09-11T01:28:06.511Z,16.73
2022-09-11T01:30:38.728Z,19.70
2022-09-11T01:33:15.882Z,19.90
2022-09-11T01:35:54.069Z,18.20
2022-09-11T01:38:29.393Z,19.43
2022-09-11T01:41:01.626Z,22.70
2022-09-11T01:43:35.339Z,18.03
2022-09-11T01:46:07.858Z,20.17
2022-09-11T01:48:42.267Z,16.40
2022-09-11T01:51:16.093Z,20.30
2022-09-11T01:53:50.316Z,18.50
2022-09-11T01:56:22.655Z,18.47
2022-09-11T01:58:57.896Z,21.43
2022-09-11T02:01:31.316Z,20.70
2022-09-11T02:04:05.154Z,20.13
2022-09-11T02:06:42.053Z,20.00
2022-09-11T02:09:15.301Z,21.50
2022-09-11T02:11:46.547Z,22.23
2022-09-11T02:14:21.733Z,23.03
2022-09-11T02:16:51.941Z,23.87
2022-09-11T02:19:21.477Z,25.13
2022-09-11T02:21:51.002Z,22.30
2022-09-11T02:24:20.681Z,27.67
2022-09-11T02:26:52.631Z,21.50
2022-09-11T02:29:24.410Z,24.50
2022-09-11T02:31:53.256Z,30.43
2022-09-11T02:34:26.863Z,26.43
2022-09-11T02:37:09.324Z,27.20
2022-09-11T02:40:00.238Z,23.43
2022-09-11T02:42:41.094Z,26.07
2022-09-11T02:45:23.278Z,22.33
2022-09-11T02:48:01.214Z,22.17
2022-09-11T02:50:34.882Z,22.13
2022-09-11T02:53:08.466Z,28.30
2022-09-11T02:55:50.066Z,31.90
2022-09-11T02:58:23.003Z,37.33
2022-09-11T03:00:54.452Z,26.20
2022-09-11T03:03:22.809Z,28.03
2022-09-11T03:05:52.802Z,26.70
2022-09-11T03:08:20.994Z,32.93
2022-09-11T03:10:50.024Z,30.40
2022-09-11T03:13:18.464Z,29.03
2022-09-11T03:15:47.594Z,30.47
2022-09-11T03:18:17.210Z,32.23
2022-09-11T03:20:46.954Z,33.63
2022-09-11T03:23:15.918Z,33.10
2022-09-11T03:25:44.182Z,31.30
2022-09-11T03:28:13.018Z,29.30
2022-09-11T03:30:41.950Z,27.40
2022-09-11T03:33:11.362Z,32.07
2022-09-11T03:35:40.888Z,31.00
2022-09-11T03:38:09.701Z,32.80
2022-09-11T03:40:39.791Z,36.30
2022-09-11T03:43:07.990Z,38.83
2022-09-11T03:45:36.631Z,33.20
2022-09-11T03:48:06.642Z,31.47
2022-09-11T03:50:35.610Z,33.20
2022-09-11T03:53:05.184Z,26.43
2022-09-11T03:55:33.544Z,43.10
2022-09-11T03:58:01.811Z,34.63
2022-09-11T04:00:30.191Z,37.60
2022-09-11T04:02:58.800Z,32.23
2022-09-11T04:05:34.628Z,31.27
2022-09-11T04:08:05.084Z,36.90
2022-09-11T04:10:34.361Z,34.67
2022-09-11T04:13:03.764Z,31.10
2022-09-11T04:15:32.861Z,31.97
2022-09-11T04:18:05.476Z,34.70
2022-09-11T04:20:36.097Z,32.67
2022-09-11T04:23:05.748Z,32.83
2022-09-11T04:25:34.416Z,29.50
2022-09-11T04:28:05.080Z,36.70
2022-09-11T04:30:38.429Z,33.10
2022-09-11T04:33:06.712Z,33.87
2022-09-11T04:35:39.327Z,32.70
2022-09-11T04:38:09.679Z,40.57
2022-09-11T04:40:40.077Z,34.63
2022-09-11T04:43:08.524Z,33.07
2022-09-11T04:45:37.531Z,33.67
2022-09-11T04:48:08.116Z,40.87
2022-09-11T04:50:36.416Z,31.30
2022-09-11T04:53:23.567Z,30.37
2022-09-11T04:55:51.967Z,36.60
2022-09-11T04:58:20.171Z,35.57
2022-09-11T05:00:48.490Z,30.97
2022-09-11T05:03:17.992Z,27.83
2022-09-11T05:05:46.267Z,31.43
2022-09-11T05:08:15.135Z,76.13
2022-09-11T05:10:44.832Z,70.07
2022-09-11T05:13:14.137Z,62.07
2022-09-11T05:15:42.412Z,62.13
2022-09-11T05:18:12.348Z,41.07
2022-09-11T05:20:41.544Z,33.17
2022-09-11T05:23:11.976Z,31.27
2022-09-11T05:25:40.987Z,30.70
2022-09-11T05:28:11.734Z,33.60
2022-09-11T05:30:40.390Z,31.63
2022-09-11T05:33:08.971Z,30.63
2022-09-11T05:35:37.589Z,31.30
2022-09-11T05:38:06.117Z,26.13
2022-09-11T05:40:34.317Z,21.10
2022-09-11T05:43:03.325Z,26.97
2022-09-11T05:45:33.504Z,33.80
2022-09-11T05:48:03.468Z,32.73
2022-09-11T05:50:34.600Z,30.57
2022-09-11T05:53:06.738Z,25.30
2022-09-11T05:55:36.009Z,31.10
2022-09-11T05:58:05.148Z,30.20
2022-09-11T06:00:35.533Z,32.83
2022-09-11T06:03:05.799Z,47.57
2022-09-11T06:05:34.418Z,50.03
2022-09-11T06:08:04.816Z,35.03
2022-09-11T06:10:33.344Z,28.77
2022-09-11T06:13:01.805Z,28.73
2022-09-11T06:15:46.034Z,27.93
2022-09-11T06:18:17.631Z,28.07
2022-09-11T06:20:56.747Z,27.17
2022-09-11T06:23:25.993Z,23.90
2022-09-11T06:26:02.982Z,21.67
2022-09-11T06:28:34.690Z,22.80
2022-09-11T06:31:03.333Z,24.20
2022-09-11T06:33:36.286Z,22.33
2022-09-11T06:36:07.527Z,21.83
2022-09-11T06:38:36.094Z,22.00
2022-09-11T06:41:06.308Z,18.87
2022-09-11T06:43:37.622Z,27.33
2022-09-11T06:46:06.992Z,31.83
2022-09-11T06:48:36.642Z,30.00
2022-09-11T06:51:08.162Z,26.73
2022-09-11T06:53:36.482Z,29.83
2022-09-11T06:56:12.328Z,30.37
2022-09-11T06:58:43.969Z,64.37
2022-09-11T07:01:14.542Z,43.57
2022-09-11T07:03:46.509Z,32.67
2022-09-11T07:06:18.395Z,25.93
2022-09-11T07:08:52.182Z,29.17
2022-09-11T07:11:21.377Z,29.57
2022-09-11T07:13:50.158Z,30.07
2022-09-11T07:16:18.468Z,27.87
2022-09-11T07:18:54.296Z,30.50
2022-09-11T07:21:26.754Z,24.63
2022-09-11T07:24:01.006Z,25.27
2022-09-11T07:26:36.327Z,28.47
2022-09-11T07:29:10.402Z,24.53
2022-09-11T07:31:39.944Z,25.73
2022-09-11T07:34:10.797Z,21.07
2022-09-11T07:36:39.444Z,26.60
2022-09-11T07:39:10.586Z,26.60
2022-09-11T07:41:48.979Z,21.00
2022-09-11T07:44:23.353Z,23.60
2022-09-11T07:46:53.131Z,34.33
2022-09-11T07:49:23.173Z,39.37
2022-09-11T07:51:52.402Z,39.03
2022-09-11T07:54:29.051Z,30.67
2022-09-11T07:56:58.200Z,25.07
2022-09-11T07:59:26.493Z,28.53
2022-09-11T08:01:55.932Z,23.13
2022-09-11T08:04:26.912Z,22.53
2022-09-11T08:06:55.686Z,21.10
2022-09-11T08:09:29.837Z,20.60
2022-09-11T08:12:03.158Z,18.90
2022-09-11T08:14:33.555Z,20.87
2022-09-11T08:17:09.840Z,16.57
2022-09-11T08:19:41.966Z,19.70
2022-09-11T08:22:10.258Z,20.07
2022-09-11T08:24:44.243Z,17.67
2022-09-11T08:27:15.461Z,18.43
2022-09-11T08:29:44.668Z,22.43
2022-09-11T08:32:13.274Z,19.57
2022-09-11T08:34:43.279Z,18.50
2022-09-11T08:37:11.647Z,16.80
2022-09-11T08:39:39.997Z,19.60
2022-09-11T08:42:14.159Z,28.03
2022-09-11T08:44:48.721Z,26.67
2022-09-11T08:47:38.293Z,25.23
2022-09-11T08:50:16.424Z,23.83
2022-09-11T08:52:45.952Z,19.10
2022-09-11T08:55:24.307Z,21.63
2022-09-11T08:58:02.156Z,22.57
2022-09-11T09:00:40.154Z,19.40
2022-09-11T09:03:41.900Z,23.17
2022-09-11T09:06:28.965Z,25.80
2022-09-11T09:09:09.317Z,31.30
2022-09-11T09:11:44.476Z,49.57
2022-09-11T09:14:45.143Z,48.50
2022-09-11T09:17:19.313Z,32.33
2022-09-11T09:19:52.891Z,27.03
2022-09-11T09:22:27.432Z,25.07
2022-09-11T09:25:01.619Z,22.93
2022-09-11T09:27:35.689Z,23.13
2022-09-11T09:30:06.931Z,22.37
2022-09-11T09:32:42.944Z,27.00
2022-09-11T09:35:17.861Z,25.37
2022-09-11T09:37:48.705Z,28.30
2022-09-11T09:40:18.720Z,21.93
2022-09-11T09:43:11.246Z,22.17
2022-09-11T09:45:54.268Z,35.33
2022-09-11T09:48:23.651Z,51.20
2022-09-11T09:50:53.478Z,39.33
2022-09-11T09:53:33.882Z,31.80
2022-09-11T09:56:06.877Z,27.17
2022-09-11T09:58:42.574Z,22.90
2022-09-11T10:01:47.541Z,26.50
2022-09-11T10:04:20.540Z,21.37
2022-09-11T10:06:52.580Z,19.20
2022-09-11T10:09:29.163Z,17.63
2022-09-11T10:12:02.859Z,15.17
2022-09-11T10:14:51.132Z,14.67
2022-09-11T10:17:23.218Z,15.00
2022-09-11T10:19:57.343Z,18.00
2022-09-11T10:22:32.642Z,12.97
2022-09-11T10:25:12.421Z,14.10
2022-09-11T10:27:54.634Z,14.43
2022-09-11T10:30:33.075Z,13.07
2022-09-11T10:33:05.983Z,15.73
2022-09-11T10:35:38.236Z,19.57
2022-09-11T10:38:18.351Z,29.00
2022-09-11T10:41:00.371Z,48.17
2022-09-11T10:43:37.973Z,37.53
2022-09-11T10:46:23.121Z,27.03
2022-09-11T10:48:57.417Z,21.53
2022-09-11T10:51:30.080Z,16.77
2022-09-11T10:54:15.989Z,16.47
2022-09-11T10:57:00.949Z,17.83
2022-09-11T10:59:40.972Z,14.63
2022-09-11T11:02:21.919Z,15.97
2022-09-11T11:04:51.979Z,14.50
2022-09-11T11:07:51.558Z,13.63
2022-09-11T11:10:34.247Z,19.07
2022-09-11T11:13:18.470Z,14.53
2022-09-11T11:16:01.594Z,12.83
2022-09-11T11:18:57.026Z,13.43
2022-09-11T11:21:40.743Z,19.73
2022-09-11T11:24:23.001Z,16.77
2022-09-11T11:27:01.529Z,20.00
2022-09-11T11:30:00.846Z,17.07
2022-09-11T11:32:54.278Z,21.00
2022-09-11T11:35:26.849Z,19.67
2022-09-11T11:38:03.848Z,16.90
2022-09-11T11:40:37.259Z,14.57
2022-09-11T11:43:09.129Z,13.40
2022-09-11T11:45:44.197Z,17.30
2022-09-11T11:48:20.719Z,12.07
2022-09-11T11:50:55.677Z,11.47
2022-09-11T11:53:29.116Z,15.00
2022-09-11T11:56:10.175Z,13.80
2022-09-11T11:58:48.079Z,13.03
2022-09-11T12:01:26.061Z,21.80
2022-09-11T12:04:02.967Z,15.13
2022-09-11T12:06:32.319Z,17.13
2022-09-11T12:09:10.042Z,13.60
2022-09-11T12:11:40.654Z,17.00
2022-09-11T12:14:27.797Z,14.30
2022-09-11T12:16:59.787Z,10.97
2022-09-11T12:19:29.189Z,15.67
2022-09-11T12:22:13.739Z,24.93
2022-09-11T12:24:58.885Z,21.60
2022-09-11T12:27:54.837Z,14.73
2022-09-11T12:30:27.811Z,16.07
2022-09-11T12:33:00.708Z,13.80
2022-09-11T12:35:41.849Z,14.57
2022-09-11T12:38:24.998Z,14.10
2022-09-11T12:40:58.685Z,12.30
2022-09-11T12:43:47.360Z,12.50
2022-09-11T12:46:49.770Z,13.37
2022-09-11T12:49:23.732Z,15.47
2022-09-11T12:51:56.739Z,15.47
2022-09-11T12:54:29.683Z,13.37
2022-09-11T12:57:04.380Z,10.60
2022-09-11T12:59:38.570Z,14.07
2022-09-11T13:02:26.681Z,8.93
2022-09-11T13:04:58.384Z,11.53
2022-09-11T13:07:34.791Z,11.60
2022-09-11T13:10:09.567Z,11.83
2022-09-11T13:12:53.018Z,9.43
2022-09-11T13:15:41.184Z,8.83
2022-09-11T13:18:32.591Z,7.40
2022-09-11T13:21:14.538Z,8.67
2022-09-11T13:23:44.551Z,9.53
2022-09-11T13:26:24.482Z,6.60
2022-09-11T13:28:56.468Z,10.10
2022-09-11T13:31:34.188Z,7.50
2022-09-11T13:34:06.886Z,6.23
2022-09-11T13:36:38.857Z,5.90
2022-09-11T13:39:10.450Z,8.33
2022-09-11T13:41:45.290Z,7.50
2022-09-11T13:44:31.936Z,7.57
2022-09-11T13:47:02.067Z,9.37
2022-09-11T13:49:37.587Z,6.80
2022-09-11T13:52:09.638Z,7.30
2022-09-11T13:54:43.855Z,7.37
2022-09-11T13:57:18.402Z,6.10
2022-09-11T13:59:49.586Z,5.47
2022-09-11T14:02:45.126Z,7.20
2022-09-11T14:05:18.355Z,5.93
2022-09-11T14:08:00.140Z,6.50
2022-09-11T14:10:32.613Z,6.03
2022-09-11T14:13:07.660Z,7.37
2022-09-11T14:15:43.099Z,7.10
2022-09-11T14:18:25.760Z,8.40
2022-09-11T14:20:56.831Z,5.30
2022-09-11T14:23:30.251Z,5.17
2022-09-11T14:26:13.068Z,5.03
2022-09-11T14:29:00.654Z,5.67
2022-09-11T14:31:40.211Z,11.30
2022-09-11T14:34:18.192Z,21.70
2022-09-11T14:36:54.508Z,16.50
2022-09-11T14:39:33.279Z,9.90
2022-09-11T14:42:04.521Z,8.83
2022-09-11T14:44:35.645Z,7.63
2022-09-11T14:47:05.891Z,7.07
2022-09-11T14:49:35.438Z,6.00
2022-09-11T14:52:05.286Z,5.40
2022-09-11T14:54:36.181Z,5.60
2022-09-11T14:57:14.424Z,5.57
2022-09-11T14:59:46.271Z,4.80
2022-09-11T15:02:16.918Z,5.90
2022-09-11T15:04:47.139Z,5.53
2022-09-11T15:07:17.302Z,4.20
2022-09-11T15:09:48.441Z,5.33
2022-09-11T15:12:17.865Z,4.83
2022-09-11T15:15:02.962Z,4.80
2022-09-11T15:17:32.178Z,6.53
2022-09-11T15:20:01.591Z,5.03
2022-09-11T15:22:31.426Z,4.83
2022-09-11T15:25:02.136Z,4.53
2022-09-11T15:27:31.537Z,5.80
2022-09-11T15:30:00.706Z,6.53
2022-09-11T15:32:31.405Z,6.13
2022-09-11T15:35:00.688Z,5.23
2022-09-11T15:37:29.325Z,6.30
2022-09-11T15:39:58.147Z,5.53
2022-09-11T15:42:28.788Z,5.53
2022-09-11T15:44:57.888Z,5.70
2022-09-11T15:47:27.932Z,5.40
2022-09-11T15:49:57.245Z,12.80
2022-09-11T15:52:27.402Z,24.23
2022-09-11T15:54:56.832Z,18.23
2022-09-11T15:57:25.950Z,14.83
2022-09-11T15:59:55.634Z,11.50
2022-09-11T16:02:24.741Z,8.23
2022-09-11T16:04:54.138Z,7.50
2022-09-11T16:07:23.944Z,6.57
2022-09-11T16:09:53.482Z,5.93
2022-09-11T16:12:22.562Z,5.17
2022-09-11T16:14:52.777Z,5.00
2022-09-11T16:17:27.113Z,6.27
2022-09-11T16:19:55.767Z,5.50
2022-09-11T16:22:25.791Z,4.80
2022-09-11T16:24:55.373Z,4.23
2022-09-11T16:27:25.821Z,5.43
2022-09-11T16:32:46.398Z,5.40
2022-09-11T16:35:15.541Z,4.20
2022-09-11T16:37:44.546Z,5.60
2022-09-11T16:40:13.649Z,4.30
2022-09-11T16:42:42.221Z,5.40
2022-09-11T16:45:11.766Z,4.43
2022-09-11T16:47:40.671Z,4.30
2022-09-11T16:50:10.956Z,5.83
2022-09-11T16:52:40.156Z,4.23
2022-09-11T16:55:10.499Z,4.67
2022-09-11T16:57:39.407Z,4.47
2022-09-11T17:00:09.611Z,4.40
2022-09-11T17:02:38.522Z,11.73
2022-09-11T17:05:08.351Z,28.97
2022-09-11T17:07:38.800Z,22.83
2022-09-11T17:10:08.815Z,17.63
2022-09-11T17:12:37.835Z,14.90
2022-09-11T17:15:08.030Z,13.77
2022-09-11T17:17:37.280Z,10.50
2022-09-11T17:20:09.614Z,8.00
2022-09-11T17:22:40.281Z,6.60
2022-09-11T17:25:10.626Z,5.90
2022-09-11T17:27:39.483Z,6.17
2022-09-11T17:30:09.655Z,5.20
2022-09-11T17:32:39.133Z,5.30
2022-09-11T17:35:08.411Z,5.63
2022-09-11T17:37:38.080Z,6.63
2022-09-11T17:40:09.880Z,5.23
2022-09-11T17:42:38.145Z,5.43
2022-09-11T17:45:07.689Z,5.10
2022-09-11T17:47:36.411Z,5.27
2022-09-11T17:50:04.968Z,5.17
2022-09-11T17:52:34.579Z,5.93
2022-09-11T17:55:03.084Z,5.67
2022-09-11T17:57:33.318Z,5.77
2022-09-11T18:00:02.643Z,6.50
2022-09-11T18:02:40.277Z,5.30
2022-09-11T18:05:08.909Z,8.20
2022-09-11T18:07:37.429Z,5.43
2022-09-11T18:10:06.546Z,5.87
2022-09-11T18:12:36.176Z,7.10
2022-09-11T18:15:05.234Z,6.63
2022-09-11T18:17:33.599Z,7.27
2022-09-11T18:20:03.291Z,11.37
2022-09-11T18:22:31.849Z,11.47
2022-09-11T18:25:00.127Z,9.00
2022-09-11T18:27:29.796Z,7.27
2022-09-11T18:30:00.379Z,7.70
2022-09-11T18:32:30.052Z,7.10
2022-09-11T18:35:00.006Z,7.47
2022-09-11T18:37:28.571Z,6.77
2022-09-11T18:39:56.885Z,6.27
2022-09-11T18:42:25.225Z,6.80
2022-09-11T18:44:53.791Z,7.00
2022-09-11T18:47:27.679Z,7.03
2022-09-11T18:49:57.081Z,13.20
2022-09-11T18:52:26.399Z,7.40
2022-09-11T18:54:54.918Z,7.30
2022-09-11T18:57:23.082Z,8.00
2022-09-11T18:59:52.114Z,7.30
2022-09-11T19:02:21.104Z,7.60
2022-09-11T19:04:50.709Z,8.07
2022-09-11T19:07:19.037Z,6.73
2022-09-11T19:09:49.027Z,7.70
2022-09-11T19:12:17.324Z,10.97
2022-09-11T19:14:45.482Z,7.97
2022-09-11T19:17:14.289Z,7.20
2022-09-11T19:19:42.491Z,7.27
2022-09-11T19:22:12.260Z,8.50
2022-09-11T19:24:41.085Z,7.10
2022-09-11T19:27:11.401Z,8.70
2022-09-11T19:29:39.764Z,9.10
2022-09-11T19:32:09.337Z,8.60
2022-09-11T19:34:46.440Z,8.70
2022-09-11T19:37:16.879Z,7.93
2022-09-11T19:39:45.389Z,8.47
2022-09-11T19:42:13.793Z,7.50
2022-09-11T19:44:42.191Z,6.83
2022-09-11T19:47:10.335Z,8.27
2022-09-11T19:49:38.528Z,7.20
2022-09-11T19:52:08.090Z,8.00
2022-09-11T19:54:38.019Z,7.50
2022-09-11T19:57:06.641Z,7.47
2022-09-11T19:59:34.768Z,9.60
2022-09-11T20:02:02.949Z,8.47
2022-09-11T20:04:31.326Z,8.70
2022-09-11T20:07:00.382Z,7.40
2022-09-11T20:09:31.829Z,8.23
2022-09-11T20:12:02.150Z,9.33
2022-09-11T20:14:31.316Z,8.00
2022-09-11T20:17:01.033Z,9.17
2022-09-11T20:19:29.469Z,8.27
2022-09-11T20:21:57.651Z,9.13
2022-09-11T20:24:25.900Z,9.20
2022-09-11T20:26:54.457Z,10.30
2022-09-11T20:29:23.956Z,10.13
2022-09-11T20:31:54.107Z,11.13
2022-09-11T20:34:25.665Z,8.67
2022-09-11T20:36:54.303Z,9.60
2022-09-11T20:39:23.295Z,8.97
2022-09-11T20:41:51.487Z,10.10
2022-09-11T20:44:19.671Z,9.23
2022-09-11T20:46:49.263Z,9.97
2022-09-11T20:49:17.582Z,9.80
2022-09-11T20:51:45.749Z,10.67
2022-09-11T20:54:14.093Z,9.83
2022-09-11T20:56:42.288Z,10.27
2022-09-11T20:59:10.463Z,9.67
2022-09-11T21:01:38.776Z,10.07
2022-09-11T21:04:08.394Z,9.60
2022-09-11T21:06:36.927Z,9.77
2022-09-11T21:09:06.815Z,8.83
2022-09-11T21:11:35.918Z,11.27
2022-09-11T21:14:04.141Z,9.80
2022-09-11T21:16:32.848Z,13.13
2022-09-11T21:19:03.326Z,10.50
2022-09-11T21:21:37.730Z,17.03
2022-09-11T21:24:08.470Z,11.70
2022-09-11T21:26:38.685Z,10.20
2022-09-11T21:29:09.336Z,10.53
2022-09-11T21:31:38.225Z,9.93
2022-09-11T21:34:06.860Z,11.17
2022-09-11T21:36:36.985Z,11.13
2022-09-11T21:39:06.624Z,11.00
2022-09-11T21:41:35.623Z,10.37
2022-09-11T21:44:04.721Z,10.93
2022-09-11T21:46:34.803Z,11.50
2022-09-11T21:49:03.983Z,8.50
2022-09-11T21:51:32.237Z,10.57
2022-09-11T21:54:02.099Z,11.37
2022-09-11T21:56:33.639Z,10.70
2022-09-11T21:59:02.858Z,10.20
2022-09-11T22:01:32.838Z,11.07
2022-09-11T22:04:02.187Z,10.73
2022-09-11T22:06:31.312Z,12.10
2022-09-11T22:09:01.238Z,9.47
2022-09-11T22:11:29.686Z,9.23
2022-09-11T22:13:57.982Z,9.90
2022-09-11T22:16:26.436Z,10.70
2022-09-11T22:18:57.016Z,9.27
2022-09-11T22:21:25.699Z,21.10
2022-09-11T22:23:55.175Z,9.50
2022-09-11T22:26:25.012Z,11.03
2022-09-11T22:28:53.696Z,10.60
2022-09-11T22:31:25.054Z,10.47
2022-09-11T22:33:55.099Z,10.30
2022-09-11T22:36:25.363Z,9.70
2022-09-11T22:38:53.754Z,11.53
2022-09-11T22:41:23.890Z,10.80
2022-09-11T22:43:52.208Z,9.43
2022-09-11T22:46:21.740Z,11.10
2022-09-11T22:48:49.904Z,12.30
2022-09-11T22:51:18.330Z,11.10
2022-09-11T22:53:46.839Z,10.90
2022-09-11T22:56:15.155Z,11.80
2022-09-11T22:58:44.796Z,13.47
2022-09-11T23:01:21.119Z,12.33
2022-09-11T23:03:50.451Z,12.43
2022-09-11T23:06:37.237Z,12.10
2022-09-11T23:09:05.856Z,14.57
2022-09-11T23:11:34.127Z,11.83
2022-09-11T23:14:03.668Z,11.57
2022-09-11T23:16:32.249Z,12.13
2022-09-11T23:19:02.490Z,11.30
2022-09-11T23:21:32.766Z,13.67
2022-09-11T23:24:02.002Z,13.90
2022-09-11T23:26:31.430Z,10.57
2022-09-11T23:28:59.753Z,12.40
2022-09-11T23:31:30.865Z,12.43
2022-09-11T23:34:01.455Z,13.87
2022-09-11T23:36:31.221Z,14.17
2022-09-11T23:39:00.101Z,13.40
2022-09-11T23:41:29.451Z,13.23
2022-09-11T23:43:57.615Z,12.60
2022-09-11T23:46:25.798Z,13.87
2022-09-11T23:48:55.878Z,13.27
2022-09-11T23:51:24.069Z,12.60
2022-09-11T23:53:52.530Z,10.27
2022-09-11T23:56:20.950Z,11.63
2022-09-11T23:58:49.650Z,11.83
